Time;durP1;ratioP1;P1;durP2;ratioP2;P2;SDS_P1;SDS_P2;PMS_P1;PMS_P2;Temp;Humidity;BMP_temperature;BMP_pressure;BME280_temperature;BME280_humidity;BME280_pressure;Samples;Min_cycle;Max_cycle;Signal;HPM_P1;HPM_P2
2023/02/17 00:01:43;;;;;;;0.55;0.55;;;8.70;76.20;;;;;;5033903;28;20632;-67
2023/02/17 00:04:08;;;;;;;1.65;1.20;;;8.80;76.50;;;;;;5029195;28;20187;-68
2023/02/17 00:06:34;;;;;;;0.70;0.70;;;8.70;76.30;;;;;;5033716;28;20636;-68
2023/02/17 00:09:00;;;;;;;0.40;0.40;;;8.70;75.90;;;;;;5033879;28;20163;-68
2023/02/17 00:11:27;;;;;;;0.50;0.50;;;8.70;75.80;;;;;;5033557;28;20640;-67
2023/02/17 00:13:53;;;;;;;0.52;0.52;;;8.70;76.30;;;;;;5033633;28;20285;-67
2023/02/17 00:16:21;;;;;;;0.83;0.83;;;8.70;78.10;;;;;;5032186;28;20678;-67
2023/02/17 00:18:51;;;;;;;1.23;1.08;;;8.60;77.90;;;;;;5033585;28;20455;-68
2023/02/17 00:21:19;;;;;;;1.40;1.35;;;8.70;77.90;;;;;;5033765;28;20167;-68
2023/02/17 00:23:46;;;;;;;2.20;1.08;;;8.60;77.30;;;;;;5033208;28;20193;-68
2023/02/17 00:26:12;;;;;;;1.48;1.30;;;8.70;77.70;;;;;;5033434;28;20265;-68
2023/02/17 00:28:38;;;;;;;7.85;1.52;;;8.70;76.70;;;;;;5033421;28;20603;-68
2023/02/17 00:31:09;;;;;;;2.00;0.97;;;8.60;77.30;;;;;;5033419;28;20198;-68
2023/02/17 00:33:35;;;;;;;1.73;1.58;;;8.50;78.90;;;;;;5033205;28;20464;-68
2023/02/17 00:36:12;;;;;;;0.70;0.70;;;8.40;78.90;;;;;;5033205;28;20182;-67
2023/02/17 00:38:38;;;;;;;0.60;0.60;;;8.50;77.90;;;;;;5033288;28;20877;-67
2023/02/17 00:41:04;;;;;;;0.80;0.50;;;8.50;78.20;;;;;;5033229;28;20204;-68
2023/02/17 00:43:29;;;;;;;1.93;1.07;;;8.60;78.00;;;;;;5033089;28;20957;-67
2023/02/17 00:45:55;;;;;;;0.50;0.50;;;8.60;79.70;;;;;;5033193;28;20424;-67
2023/02/17 00:48:21;;;;;;;3.20;1.60;;;8.70;76.00;;;;;;5033286;28;20185;-68
2023/02/17 00:50:47;;;;;;;2.30;1.80;;;8.70;75.60;;;;;;5033266;28;20409;-67
2023/02/17 00:53:13;;;;;;;1.00;1.00;;;8.70;75.80;;;;;;5032927;28;20820;-68
2023/02/17 00:55:39;;;;;;;1.83;1.60;;;8.60;76.90;;;;;;5033138;28;20332;-68
2023/02/17 00:58:04;;;;;;;1.10;1.10;;;8.60;77.50;;;;;;5033020;28;20407;-67
2023/02/17 01:00:30;;;;;;;0.40;0.40;;;8.70;76.30;;;;;;5033202;28;20203;-67
2023/02/17 01:02:56;;;;;;;0.73;0.70;;;8.70;75.90;;;;;;5033141;28;20621;-68
2023/02/17 01:05:21;;;;;;;0.40;0.40;;;8.70;75.80;;;;;;5032973;28;20623;-67
2023/02/17 01:07:47;;;;;;;1.77;1.47;;;8.80;75.00;;;;;;5033224;28;20198;-67
2023/02/17 01:10:13;;;;;;;1.23;0.80;;;8.90;74.40;;;;;;5037004;28;20177;-67
2023/02/17 01:12:39;;;;;;;0.55;0.55;;;8.80;75.90;;;;;;5036862;28;20219;-67
2023/02/17 01:15:05;;;;;;;1.17;0.63;;;8.90;76.50;;;;;;5036929;28;20249;-67
2023/02/17 01:17:31;;;;;;;2.47;0.50;;;8.90;76.30;;;;;;5035360;28;20651;-68
2023/02/17 01:19:56;;;;;;;1.13;1.10;;;9.00;75.80;;;;;;5036800;28;20175;-67
2023/02/17 01:22:23;;;;;;;0.77;0.77;;;9.00;76.30;;;;;;5036759;28;20276;-68
2023/02/17 01:24:49;;;;;;;4.53;1.60;;;8.80;76.60;;;;;;5035504;28;20182;-67
2023/02/17 01:27:14;;;;;;;0.37;0.37;;;8.80;76.20;;;;;;5036553;28;20197;-67
2023/02/17 01:29:40;;;;;;;1.10;1.10;;;8.90;77.50;;;;;;5036706;28;20174;-67
2023/02/17 01:32:06;;;;;;;0.77;0.77;;;8.90;78.00;;;;;;5036522;28;20197;-68
2023/02/17 01:34:31;;;;;;;1.80;0.60;;;8.90;77.60;;;;;;5036418;28;20198;-68
2023/02/17 01:36:57;;;;;;;0.77;0.77;;;8.80;78.00;;;;;;5036461;28;20217;-68
2023/02/17 01:39:22;;;;;;;7.33;0.90;;;8.90;78.50;;;;;;5036393;28;20242;-67
2023/02/17 01:41:48;;;;;;;0.40;0.40;;;9.00;78.70;;;;;;5036537;28;20208;-67
2023/02/17 01:44:17;;;;;;;1.13;1.03;;;8.90;78.20;;;;;;5036390;28;20555;-68
2023/02/17 01:46:45;;;;;;;0.60;0.60;;;8.90;78.60;;;;;;5036207;28;20174;-68
2023/02/17 01:49:35;;;;;;;0.85;0.85;;;8.90;78.90;;;;;;5036168;28;20178;-67
2023/02/17 01:52:19;;;;;;;0.50;0.50;;;8.90;78.80;;;;;;5036357;28;20198;-67
2023/02/17 01:54:50;;;;;;;4.40;1.90;;;9.00;77.90;;;;;;5036143;28;20159;-67
2023/02/17 01:57:20;;;;;;;0.70;0.70;;;8.90;77.90;;;;;;5035956;28;20628;-68
2023/02/17 01:59:47;;;;;;;7.78;1.40;;;9.00;78.00;;;;;;5036395;28;20217;-67
2023/02/17 02:02:14;;;;;;;0.88;0.88;;;9.00;76.20;;;;;;5035897;28;20186;-67
2023/02/17 02:04:44;;;;;;;0.80;0.80;;;8.90;77.80;;;;;;5035966;28;20175;-67
2023/02/17 02:07:15;;;;;;;2.42;2.17;;;9.00;78.30;;;;;;5035842;28;20261;-67
2023/02/17 02:09:47;;;;;;;1.35;1.25;;;9.00;79.10;;;;;;5036077;28;20186;-67
2023/02/17 02:12:19;;;;;;;0.60;0.60;;;8.80;79.30;;;;;;5034823;28;20564;-67
2023/02/17 02:14:46;;;;;;;1.58;1.27;;;8.90;79.40;;;;;;5035803;28;20182;-68
2023/02/17 02:17:34;;;;;;;0.57;0.57;;;8.90;79.10;;;;;;5035778;28;20189;-68
2023/02/17 02:20:08;;;;;;;0.60;0.60;;;9.00;78.80;;;;;;5035079;28;20171;-67
2023/02/17 02:22:51;;;;;;;0.40;0.40;;;8.90;79.50;;;;;;5035747;28;20551;-67
2023/02/17 02:25:42;;;;;;;0.80;0.80;;;8.90;79.30;;;;;;5035689;28;20614;-68
2023/02/17 02:28:13;;;;;;;0.68;0.68;;;9.00;79.10;;;;;;5035654;28;20175;-67
2023/02/17 02:30:41;;;;;;;0.30;0.30;;;9.00;78.50;;;;;;5034370;28;20663;-67
2023/02/17 02:33:24;;;;;;;1.15;0.93;;;9.00;78.10;;;;;;5035528;28;20670;-67
2023/02/17 02:36:05;;;;;;;2.45;0.80;;;9.00;76.80;;;;;;5035362;28;20181;-67
2023/02/17 02:38:52;;;;;;;0.40;0.40;;;8.80;79.00;;;;;;5035614;28;20643;-67
2023/02/17 02:41:29;;;;;;;1.45;1.20;;;8.80;79.40;;;;;;5034220;28;20190;-67
2023/02/17 02:43:55;;;;;;;1.08;1.02;;;9.00;78.60;;;;;;5035147;28;20563;-67
2023/02/17 02:46:20;;;;;;;1.20;1.10;;;9.00;79.00;;;;;;5035126;28;20186;-68
2023/02/17 02:48:47;;;;;;;0.80;0.80;;;9.00;78.40;;;;;;5035160;28;20170;-67
2023/02/17 02:51:12;;;;;;;5.57;1.70;;;9.10;78.40;;;;;;5035623;28;20697;-67
2023/02/17 02:54:08;;;;;;;0.63;0.60;;;9.10;77.20;;;;;;5033847;28;20213;-68
2023/02/17 02:56:42;;;;;;;0.40;0.40;;;9.20;75.30;;;;;;5034936;28;20174;-67
2023/02/17 02:59:27;;;;;;;0.80;0.80;;;9.20;76.10;;;;;;5035057;28;20530;-67
2023/02/17 03:01:52;;;;;;;0.77;0.77;;;9.20;76.70;;;;;;5033585;28;20179;-67
2023/02/17 03:04:45;;;;;;;2.10;0.77;;;9.20;76.20;;;;;;5034795;28;20170;-67
2023/02/17 03:07:20;;;;;;;1.75;0.63;;;9.20;76.20;;;;;;5034738;28;20255;-68
2023/02/17 03:09:48;;;;;;;1.23;1.13;;;9.20;76.60;;;;;;5035031;28;20531;-67
2023/02/17 03:12:14;;;;;;;1.58;1.48;;;9.20;76.60;;;;;;5034857;28;20219;-68
2023/02/17 03:14:42;;;;;;;0.73;0.67;;;9.20;77.00;;;;;;5034572;28;20597;-67
2023/02/17 03:17:08;;;;;;;0.73;0.73;;;9.30;77.10;;;;;;5033230;28;20250;-70
2023/02/17 03:19:34;;;;;;;1.53;1.20;;;9.30;77.70;;;;;;5034761;28;20708;-67
2023/02/17 03:22:19;;;;;;;0.60;0.60;;;9.20;78.10;;;;;;5034642;28;20428;-68
2023/02/17 03:24:44;;;;;;;0.60;0.60;;;9.20;78.90;;;;;;5034564;28;20163;-68
2023/02/17 03:27:10;;;;;;;0.60;0.60;;;9.20;79.60;;;;;;5034460;28;20220;-67
2023/02/17 03:29:35;;;;;;;1.97;1.43;;;9.20;80.00;;;;;;5034387;28;20202;-67
2023/02/17 03:32:01;;;;;;;0.93;0.93;;;9.20;80.30;;;;;;5033287;28;20652;-67
2023/02/17 03:34:27;;;;;;;1.17;1.17;;;9.10;80.90;;;;;;5034352;28;20199;-67
2023/02/17 03:36:53;;;;;;;0.90;0.90;;;9.10;81.10;;;;;;5034087;28;20175;-67
2023/02/17 03:39:18;;;;;;;2.97;2.03;;;9.10;82.00;;;;;;5032981;28;20493;-67
2023/02/17 03:41:44;;;;;;;3.23;3.00;;;9.20;82.40;;;;;;5034247;28;20177;-68
2023/02/17 03:44:10;;;;;;;1.03;1.03;;;9.20;82.90;;;;;;5034007;28;20670;-67
2023/02/17 03:46:39;;;;;;;1.10;1.00;;;9.30;82.50;;;;;;5033989;28;20417;-67
2023/02/17 03:49:04;;;;;;;0.60;0.60;;;9.30;82.90;;;;;;5034098;28;20225;-67
2023/02/17 03:51:30;;;;;;;1.13;1.07;;;9.30;83.40;;;;;;5034090;28;20175;-67
2023/02/17 03:53:56;;;;;;;0.40;0.40;;;9.30;83.10;;;;;;5033832;28;20601;-67
2023/02/17 03:56:21;;;;;;;1.77;1.60;;;9.20;82.30;;;;;;5033665;28;20174;-67
2023/02/17 03:58:48;;;;;;;2.17;1.90;;;9.30;82.50;;;;;;5034246;28;20206;-68
2023/02/17 04:01:14;;;;;;;1.75;1.65;;;9.30;83.30;;;;;;5033803;28;20399;-67
2023/02/17 04:03:40;;;;;;;0.50;0.50;;;9.20;83.30;;;;;;5033596;28;20289;-68
2023/02/17 04:06:06;;;;;;;4.82;2.17;;;9.10;82.70;;;;;;5033685;28;20178;-67
2023/02/17 04:08:32;;;;;;;1.70;1.60;;;9.20;82.70;;;;;;5033818;28;20179;-67
2023/02/17 04:11:00;;;;;;;1.60;0.80;;;9.30;83.60;;;;;;5033679;28;20186;-67
2023/02/17 04:13:27;;;;;;;2.25;1.50;;;9.30;83.40;;;;;;5032149;28;20825;-68
2023/02/17 04:15:53;;;;;;;0.40;0.40;;;9.30;83.60;;;;;;5033491;28;20186;-67
2023/02/17 04:18:20;;;;;;;0.95;0.95;;;9.20;83.80;;;;;;5033716;28;20687;-67
2023/02/17 04:20:47;;;;;;;1.42;1.33;;;9.20;83.70;;;;;;5033426;28;20175;-67
2023/02/17 04:23:13;;;;;;;1.63;1.50;;;9.20;83.70;;;;;;5033389;28;20222;-67
2023/02/17 04:25:39;;;;;;;0.90;0.83;;;9.30;83.90;;;;;;5033610;28;20221;-67
2023/02/17 04:28:06;;;;;;;0.70;0.60;;;9.20;83.90;;;;;;5033284;28;20182;-68
2023/02/17 04:30:32;;;;;;;1.63;1.52;;;9.30;83.90;;;;;;5032443;28;20551;-67
2023/02/17 04:32:58;;;;;;;0.55;0.55;;;9.30;82.90;;;;;;5033303;28;20545;-67
2023/02/17 04:35:24;;;;;;;0.97;0.50;;;9.30;83.40;;;;;;5033400;28;20176;-67
2023/02/17 04:37:50;;;;;;;0.98;0.93;;;9.20;84.30;;;;;;5033338;28;20190;-67
2023/02/17 04:40:16;;;;;;;0.82;0.82;;;9.30;85.30;;;;;;5033703;28;20167;-67
2023/02/17 04:42:41;;;;;;;0.83;0.83;;;9.20;86.60;;;;;;5032835;28;20197;-67
2023/02/17 04:45:08;;;;;;;0.70;0.70;;;9.20;89.00;;;;;;5033447;28;20887;-67
2023/02/17 04:47:34;;;;;;;1.05;1.05;;;9.10;90.50;;;;;;5033081;28;20175;-67
2023/02/17 04:49:59;;;;;;;4.00;1.33;;;9.00;91.50;;;;;;5033361;28;20185;-67
2023/02/17 04:52:25;;;;;;;0.50;0.50;;;8.80;92.30;;;;;;5033125;28;20429;-68
2023/02/17 04:54:51;;;;;;;1.43;1.37;;;8.80;92.70;;;;;;5033381;28;20198;-70
2023/02/17 04:57:17;;;;;;;1.53;1.27;;;8.80;92.30;;;;;;5033020;28;20163;-70
2023/02/17 04:59:42;;;;;;;5.80;1.65;;;8.80;92.40;;;;;;5033162;28;20163;-68
2023/02/17 05:02:08;;;;;;;0.80;0.77;;;8.80;92.60;;;;;;5031824;28;20718;-68
2023/02/17 05:04:34;;;;;;;0.57;0.57;;;8.70;92.60;;;;;;5033022;28;20261;-67
2023/02/17 05:06:59;;;;;;;0.70;0.70;;;8.80;92.80;;;;;;5032883;28;20706;-68
2023/02/17 05:09:25;;;;;;;0.97;0.60;;;8.80;92.80;;;;;;5033006;28;20178;-67
2023/02/17 05:11:51;;;;;;;2.43;2.33;;;8.80;93.10;;;;;;5031645;28;20546;-67
2023/02/17 05:14:16;;;;;;;0.77;0.77;;;8.80;92.70;;;;;;5033473;28;20205;-70
2023/02/17 05:16:42;;;;;;;2.83;0.80;;;8.80;92.80;;;;;;5032740;28;20181;-67
2023/02/17 05:19:08;;;;;;;0.50;0.50;;;8.80;93.10;;;;;;5033016;28;20163;-67
2023/02/17 05:21:33;;;;;;;0.70;0.70;;;8.70;93.00;;;;;;5033041;28;20242;-67
2023/02/17 05:23:59;;;;;;;0.70;0.70;;;8.70;93.10;;;;;;5032728;28;20227;-68
2023/02/17 05:26:25;;;;;;;0.67;0.67;;;8.70;93.10;;;;;;5032630;28;20167;-68
2023/02/17 05:28:50;;;;;;;0.97;0.80;;;8.80;93.30;;;;;;5032870;28;20248;-68
2023/02/17 05:31:16;;;;;;;2.50;2.30;;;8.80;93.50;;;;;;5032853;28;20408;-67
2023/02/17 05:33:42;;;;;;;1.05;0.95;;;8.80;93.50;;;;;;5032514;28;20213;-68
2023/02/17 05:36:09;;;;;;;2.30;0.97;;;8.80;93.60;;;;;;5032859;28;20485;-67
2023/02/17 05:38:35;;;;;;;14.10;1.23;;;8.80;93.70;;;;;;5032699;28;20169;-68
2023/02/17 05:41:01;;;;;;;0.40;0.40;;;8.80;93.70;;;;;;5032622;28;20220;-67
2023/02/17 05:43:27;;;;;;;2.33;0.97;;;8.80;93.80;;;;;;5032440;28;20252;-67
2023/02/17 05:45:53;;;;;;;0.40;0.40;;;8.70;93.90;;;;;;5032700;28;20411;-67
2023/02/17 05:48:18;;;;;;;1.90;1.30;;;8.70;94.00;;;;;;5033048;28;20169;-68
2023/02/17 05:50:44;;;;;;;1.63;1.53;;;8.80;94.00;;;;;;5032782;28;20636;-67
2023/02/17 05:53:09;;;;;;;0.70;0.70;;;8.70;93.90;;;;;;5032511;28;20201;-68
2023/02/17 05:55:35;;;;;;;1.10;1.00;;;8.70;94.00;;;;;;5034102;28;20239;-68
2023/02/17 05:58:01;;;;;;;1.37;0.80;;;8.80;93.80;;;;;;5036042;28;20693;-68
2023/02/17 06:00:27;;;;;;;1.30;1.20;;;8.70;93.80;;;;;;5036231;28;20526;-68
2023/02/17 06:02:52;;;;;;;3.20;1.70;;;8.80;93.70;;;;;;5034757;28;20191;-67
2023/02/17 06:05:18;;;;;;;0.50;0.40;;;9.00;93.40;;;;;;5035006;28;20655;-70
2023/02/17 06:07:43;;;;;;;1.93;1.83;;;9.00;93.30;;;;;;5035632;28;20213;-69
2023/02/17 06:10:10;;;;;;;0.80;0.80;;;9.00;93.30;;;;;;5034861;28;20189;-70
2023/02/17 06:12:36;;;;;;;1.05;0.70;;;9.10;93.20;;;;;;5035789;28;20193;-68
2023/02/17 06:15:02;;;;;;;0.60;0.60;;;9.10;93.00;;;;;;5035903;28;20247;-68
2023/02/17 06:17:27;;;;;;;1.23;1.10;;;9.10;92.90;;;;;;5035875;28;20175;-68
2023/02/17 06:19:53;;;;;;;2.13;2.03;;;9.10;92.80;;;;;;5035870;28;20179;-68
2023/02/17 06:22:19;;;;;;;2.63;1.00;;;9.10;92.80;;;;;;5034804;28;20190;-68
2023/02/17 06:24:44;;;;;;;0.83;0.83;;;9.20;92.70;;;;;;5034803;28;20181;-68
2023/02/17 06:27:10;;;;;;;1.43;1.43;;;9.20;92.80;;;;;;5035407;28;20179;-68
2023/02/17 06:29:35;;;;;;;2.20;2.10;;;9.20;92.70;;;;;;5035661;28;20177;-68
2023/02/17 06:32:01;;;;;;;2.17;1.97;;;9.20;92.80;;;;;;5035627;28;20194;-68
2023/02/17 06:34:27;;;;;;;1.70;1.67;;;9.20;92.80;;;;;;5035353;28;20240;-68
2023/02/17 06:36:53;;;;;;;0.80;0.80;;;9.20;92.80;;;;;;5035336;28;20174;-68
2023/02/17 06:39:18;;;;;;;1.05;0.88;;;9.30;92.60;;;;;;5035404;28;20171;-68
2023/02/17 06:41:44;;;;;;;0.93;0.80;;;9.30;92.60;;;;;;5035340;28;20178;-68
2023/02/17 06:44:10;;;;;;;0.60;0.60;;;9.40;92.60;;;;;;5035231;28;20209;-68
2023/02/17 06:46:36;;;;;;;4.23;2.03;;;9.30;92.80;;;;;;5035182;28;20699;-68
2023/02/17 06:49:01;;;;;;;0.83;0.83;;;9.30;93.00;;;;;;5035350;28;20258;-68
2023/02/17 06:51:27;;;;;;;4.73;1.50;;;9.30;92.80;;;;;;5035026;28;20205;-68
2023/02/17 06:53:54;;;;;;;2.17;0.82;;;9.40;92.70;;;;;;5034954;28;20210;-68
2023/02/17 06:56:19;;;;;;;1.85;1.67;;;9.40;92.70;;;;;;5033365;28;20170;-69
2023/02/17 06:58:45;;;;;;;1.03;1.03;;;9.40;92.80;;;;;;5035352;28;20650;-68
2023/02/17 07:01:19;;;;;;;0.93;0.93;;;9.30;93.00;;;;;;5033900;28;20163;-68
2023/02/17 07:03:45;;;;;;;1.48;1.38;;;9.40;92.90;;;;;;5034491;28;20217;-69
2023/02/17 07:06:11;;;;;;;1.10;1.10;;;9.50;92.70;;;;;;5034474;28;20170;-70
2023/02/17 07:08:37;;;;;;;5.75;4.00;;;9.50;92.60;;;;;;5032780;28;20413;-71
2023/02/17 07:11:08;;;;;;;0.67;0.67;;;9.50;92.70;;;;;;5034819;28;20175;-69
2023/02/17 07:13:33;;;;;;;2.13;2.03;;;9.60;92.70;;;;;;5034603;28;20837;-69
2023/02/17 07:15:59;;;;;;;1.33;1.17;;;9.60;92.60;;;;;;5034640;28;20492;-69
